Latest Weather Observations for Centre Island

IDD60801

Issued at 10:31 am CST Thursday 2 April 2015 (issued every 30 minutes, with the page automatically refreshed every 10 minutes)

About weather observations | Map of weather stations | Latest weather observations for NT | Other Formats
Station Details ID: 014703 Name: CENTRE ISLAND Lat: -15.74 Lon: 136.82 Height: 12.2 m
Data from the previous 72 hours. | See also: Recent months at Centre Island
Date/Time
CST
Temp
°C
App
Temp
°C
Dew
Point
Rel
Hum
%
Delta-T
°C
Wind Press
QNH
hPa
Press
MSL
hPa
Rain
since 9 am
mm
Dir
 
Spd
km/h
Gust
km/h
Spd
kts
Gust
kts
02/10:30am 32.3 36.9 25.4 67 4.9 ESE 11 13 6 7 1010.7 1010.6 0.0
02/10:00am 31.4 36.0 24.8 68 4.6 SE 9 11 5 6 1010.9 1010.8 0.0
02/09:30am 31.6 36.7 25.0 68 4.7 SE 7 9 4 5 1010.9 1010.8 0.0
02/09:00am 31.3 36.4 24.9 69 4.5 S 7 11 4 6 1010.7 1010.6 0.0
02/08:30am 30.7 34.9 24.8 71 4.1 SSE 11 15 6 8 1010.6 1010.5 0.0
02/08:00am 30.5 35.7 25.1 73 3.8 SSW 7 9 4 5 1010.3 1010.2 0.0
02/07:30am 29.5 34.8 25.3 78 3.0 WSW 7 9 4 5 1010.1 1010.0 0.0
02/07:00am 28.5 35.0 25.7 85 2.0 NW 2 7 1 4 1009.7 1009.6 0.0
02/06:30am 27.7 32.8 24.7 84 2.1 NW 6 6 3 3 1009.2 1009.1 0.0
02/06:00am 27.8 32.6 24.4 82 2.4 NW 7 9 4 5 1008.9 1008.8 0.0
02/05:30am 28.1 34.2 24.5 81 2.5 CALM 0 0 0 0 1008.8 1008.7 0.0
02/05:00am 28.3 34.4 24.5 80 2.6 CALM 0 0 0 0 1008.7 1008.6 0.0
02/04:30am 28.7 33.8 24.9 80 2.7 W 7 9 4 5 1008.5 1008.4 0.0
02/04:00am 28.6 33.4 24.4 78 2.9 NW 7 7 4 4 1008.1 1008.0 0.0
02/03:30am 28.3 33.1 24.5 80 2.6 NW 7 9 4 5 1008.1 1008.0 0.0
02/03:00am 28.4 33.5 24.6 80 2.7 NNW 6 7 3 4 1008.2 1008.1 0.0
02/02:30am 28.5 33.4 24.3 78 2.9 N 6 6 3 3 1008.3 1008.2 0.0
02/02:00am 28.8 33.7 24.4 77 3.1 NNW 6 7 3 4 1008.5 1008.4 0.0
02/01:30am 29.0 33.7 24.3 76 3.3 NW 7 9 4 5 1008.9 1008.8 0.0
02/01:00am 29.4 34.2 24.5 75 3.4 N 7 11 4 6 1009.3 1009.2 0.0
02/12:30am 29.2 34.1 24.3 75 3.4 NNW 6 7 3 4 1009.6 1009.5 0.0
02/12:00am 29.4 34.4 24.5 75 3.4 NNW 6 7 3 4 1010.0 1009.9 0.0
 
Date/Time
CST
Temp
°C
App
Temp
°C
Dew
Point
Rel
Hum
%
Delta-T
°C
Wind Press
QNH
hPa
Press
MSL
hPa
Rain
since 9 am
mm
Dir
 
Spd
km/h
Gust
km/h
Spd
kts
Gust
kts
01/11:30pm 29.5 34.3 24.4 74 3.6 NW 7 9 4 5 1010.3 1010.2 0.0
01/11:00pm 29.8 33.4 24.4 73 3.8 N 13 20 7 11 1010.4 1010.3 0.0
01/10:30pm 29.7 34.2 23.9 71 4.0 NNW 7 9 4 5 1010.5 1010.4 0.0
01/10:00pm 29.9 35.6 23.8 70 4.2 CALM 0 6 0 3 1011.1 1011.0 0.0
01/09:30pm 29.9 33.7 24.1 71 4.0 N 11 15 6 8 1010.7 1010.6 0.0
01/09:00pm 30.0 33.1 24.2 71 4.0 N 15 20 8 11 1010.2 1010.1 0.0
01/08:30pm 30.1 33.0 24.5 72 3.9 NNE 17 22 9 12 1010.2 1010.1 0.0
01/08:00pm 30.2 33.1 24.4 71 4.0 NNE 17 24 9 13 1010.1 1010.0 0.0
01/07:30pm 30.2 32.4 23.9 69 4.4 NNE 19 24 10 13 1009.4 1009.3 0.0
01/07:00pm 30.4 33.5 24.8 72 3.9 N 17 26 9 14 1008.9 1008.8 0.0
01/06:30pm 30.3 33.1 24.9 73 3.8 NNE 19 24 10 13 1008.9 1008.8 0.0
01/06:00pm 30.7 33.8 24.8 71 4.1 NNE 17 24 9 13 1008.7 1008.6 0.0
01/05:30pm 31.0 33.2 24.9 70 4.3 NNE 22 30 12 16 1008.5 1008.4 0.0
01/05:00pm 31.3 33.0 24.7 68 4.6 NNE 24 30 13 16 1008.4 1008.3 0.0
01/04:30pm 31.9 34.0 24.7 65 5.1 NE 22 30 12 16 1008.5 1008.4 0.0
01/04:00pm 32.3 34.1 24.3 62 5.6 NE 22 28 12 15 1008.7 1008.6 0.0
01/03:30pm 32.8 34.6 24.3 61 6.0 NE 22 28 12 15 1008.7 1008.6 0.0
01/03:00pm 33.4 35.8 24.3 59 6.4 NNE 19 26 10 14 1008.9 1008.8 0.0
01/02:30pm 33.7 35.0 23.4 55 7.2 NNE 22 30 12 16 1009.1 1009.0 0.0
01/02:00pm 34.3 35.2 22.7 50 8.0 NNE 22 30 12 16 1009.6 1009.5 0.0
01/01:30pm 35.2 36.6 22.9 49 8.5 NNE 20 30 11 16 1009.9 1009.8 0.0
01/01:00pm 34.2 35.5 22.3 50 8.2 NE 19 24 10 13 1010.5 1010.4 0.0
01/12:30pm 34.1 36.6 22.5 50 8.0 ENE 13 19 7 10 1010.8 1010.7 0.0
01/12:00pm 33.1 37.1 23.7 57 6.5 SE 9 11 5 6 1011.3 1011.2 0.0
01/11:30am 32.0 35.7 23.3 60 6.0 SE 9 13 5 7 1011.6 1011.5 0.0
01/11:00am 32.1 37.1 25.4 67 4.8 SE 9 11 5 6 1012.1 1012.0 0.0
01/10:30am 31.6 36.5 25.2 69 4.5 SSE 9 11 5 6 1012.3 1012.2 0.0
01/10:00am 30.8 35.4 24.7 70 4.3 S 9 11 5 6 1012.5 1012.4 0.0
01/09:30am 30.8 35.4 24.7 70 4.3 SSW 9 11 5 6 1012.4 1012.3 0.0
01/09:00am 30.9 35.6 25.0 71 4.2 SW 9 13 5 7 1012.4 1012.3 0.0
01/08:30am 30.1 34.3 24.7 73 3.8 SSW 11 15 6 8 1012.4 1012.3 0.0
01/08:00am 29.7 34.3 24.8 75 3.4 SW 9 13 5 7 1012.0 1011.9 0.0
01/07:30am 29.0 33.2 24.8 78 2.9 SW 11 15 6 8 1011.7 1011.6 0.0
01/07:00am 28.3 32.1 24.7 81 2.5 SW 13 17 7 9 1011.5 1011.4 0.0
01/06:30am 28.0 31.2 24.4 81 2.5 SW 15 19 8 10 1011.1 1011.0 0.0
01/06:00am 28.0 31.0 24.6 82 2.4 SW 17 20 9 11 1011.0 1010.9 0.0
01/05:30am 28.1 31.9 24.7 82 2.4 SW 13 19 7 10 1010.7 1010.6 0.0
01/05:00am 28.1 32.0 24.9 83 2.2 SW 13 19 7 10 1010.5 1010.4 0.0
01/04:30am 27.5 32.4 24.7 85 2.0 W 7 9 4 5 1010.2 1010.1 0.0
01/04:00am 27.2 33.1 24.1 83 2.1 CALM 0 0 0 0 1009.9 1009.8 0.0
01/03:30am 27.2 32.9 23.7 81 2.4 CALM 0 0 0 0 1009.9 1009.8 0.0
01/03:00am 27.2 31.5 23.7 81 2.4 NW 7 9 4 5 1009.8 1009.7 0.0
01/02:30am 27.7 32.4 24.3 82 2.4 WNW 7 7 4 4 1010.0 1009.9 0.0
01/02:00am 27.8 32.2 23.8 79 2.8 NW 7 9 4 5 1010.3 1010.2 0.0
01/01:30am 28.1 32.3 23.5 76 3.2 NNW 7 9 4 5 1010.7 1010.6 0.0
01/01:00am 28.7 33.0 24.3 77 3.1 N 9 15 5 8 1011.0 1010.9 0.0
01/12:30am 28.6 32.9 24.2 77 3.1 N 9 11 5 6 1011.4 1011.3 0.0
01/12:00am 29.1 33.1 23.8 73 3.7 NNE 9 11 5 6 1011.8 1011.7 0.0
 
Date/Time
CST
Temp
°C
App
Temp
°C
Dew
Point
Rel
Hum
%
Delta-T
°C
Wind Press
QNH
hPa
Press
MSL
hPa
Rain
since 9 am
mm
Dir
 
Spd
km/h
Gust
km/h
Spd
kts
Gust
kts
31/11:30pm 29.3 33.2 24.2 74 3.5 NNE 11 15 6 8 1012.0 1011.9 0.0
31/11:00pm 29.4 32.4 24.0 72 3.7 NE 15 17 8 9 1012.2 1012.1 0.0
31/10:30pm 29.6 32.7 24.2 73 3.8 NE 15 20 8 11 1012.3 1012.2 0.0
31/10:00pm 29.6 32.7 24.2 73 3.8 NNE 15 20 8 11 1012.2 1012.1 0.0
31/09:30pm 29.8 32.7 24.4 73 3.8 NNE 17 20 9 11 1012.3 1012.2 0.0
31/09:00pm 29.8 32.2 24.2 72 3.9 NNE 19 24 10 13 1012.0 1011.9 0.0
31/08:30pm 29.9 32.2 24.1 71 4.0 NNE 19 24 10 13 1011.7 1011.6 0.0
31/08:00pm 29.8 32.7 24.4 73 3.8 NNE 17 22 9 12 1011.6 1011.5 0.0
31/07:30pm 29.9 32.8 24.5 73 3.8 NNE 17 22 9 12 1011.5 1011.4 0.0
31/07:00pm 30.0 32.9 24.4 72 3.9 NNE 17 24 9 13 1011.2 1011.1 0.0
31/06:30pm 30.2 32.5 24.1 70 4.2 NNE 19 24 10 13 1011.0 1010.9 0.0
31/06:00pm 30.8 33.3 24.4 68 4.5 NNE 19 22 10 12 1010.7 1010.6 0.0
31/05:30pm 31.3 33.1 24.2 66 5.0 NNE 22 28 12 15 1010.6 1010.5 0.0
31/05:00pm 31.8 33.9 24.7 66 5.0 NNE 22 30 12 16 1010.3 1010.2 0.0
31/04:30pm 32.5 34.8 24.5 62 5.6 NNE 20 28 11 15 1010.3 1010.2 0.0
31/04:00pm 33.0 35.7 24.2 60 6.2 NNE 17 24 9 13 1010.4 1010.3 0.0
31/03:30pm 33.0 35.4 23.6 57 6.5 NNE 17 20 9 11 1010.3 1010.2 0.0
31/03:00pm 33.7 36.9 24.3 58 6.6 NE 15 20 8 11 1010.4 1010.3 0.0
31/02:30pm 33.0 36.0 23.3 56 6.7 NE 13 17 7 9 1010.8 1010.7 0.0
31/02:00pm 33.2 36.7 23.5 56 6.7 NE 11 17 6 9 1011.2 1011.1 0.0
31/01:30pm 34.0 37.8 24.0 56 7.0 NE 11 13 6 7 1011.7 1011.6 0.0
31/01:00pm 33.3 37.0 23.3 55 6.9 NNE 9 13 5 7 1012.2 1012.1 0.0
31/12:30pm 33.7 37.8 24.0 57 6.8 ESE 9 11 5 6 1012.6 1012.5 0.0
31/12:00pm 32.2 35.7 22.9 58 6.4 SE 9 13 5 7 1013.1 1013.0 0.0
31/11:30am 32.1 35.6 22.8 58 6.4 SSE 9 13 5 7 1013.5 1013.4 0.0
31/11:00am 32.0 35.8 23.5 60 5.9 SE 9 13 5 7 1014.0 1013.9 0.0
31/10:30am 31.1 34.7 23.7 64 5.1 SSE 11 13 6 7 1014.4 1014.3 0.0
31/10:00am 31.0 35.0 24.4 68 4.6 S 11 13 6 7 1014.6 1014.5 0.0
31/09:30am 30.4 34.1 24.5 70 4.1 S 13 17 7 9 1014.5 1014.4 0.0
31/09:00am 29.9 33.3 24.1 71 4.0 SSE 13 17 7 9 1014.3 1014.2 0.0
31/08:30am 29.7 33.4 24.6 74 3.6 S 13 17 7 9 1014.1 1014.0 0.0
31/08:00am 29.2 33.6 24.5 76 3.3 S 9 13 5 7 1013.7 1013.6 0.0
31/07:30am 28.5 33.7 23.6 75 3.4 NW 2 6 1 3 1013.4 1013.3 0.0
31/07:00am 27.1 31.6 23.6 81 2.4 NW 6 7 3 4 1013.0 1012.9 0.0
31/06:30am 26.7 30.9 23.2 81 2.4 NW 6 7 3 4 1012.6 1012.5 0.0
31/06:00am 26.6 31.0 23.5 83 2.1 NW 6 6 3 3 1012.1 1012.0 0.0
31/05:30am 26.8 31.2 23.5 82 2.3 NW 6 7 3 4 1012.0 1011.9 0.0
31/05:00am 27.0 30.9 23.0 79 2.7 NW 7 7 4 4 1011.7 1011.6 0.0
31/04:30am 27.4 31.5 23.2 78 2.9 NNW 7 9 4 5 1011.7 1011.6 0.0
31/04:00am 28.5 31.9 23.4 74 3.5 NNE 11 13 6 7 1011.6 1011.5 0.0
31/03:30am 28.6 31.5 23.1 72 3.8 NNE 13 17 7 9 1011.4 1011.3 0.0
31/03:00am 28.8 31.7 23.2 71 3.8 NE 13 17 7 9 1011.5 1011.4 0.0
31/02:30am 28.9 31.8 23.8 74 3.5 ENE 15 19 8 10 1011.6 1011.5 0.0
31/02:00am 28.9 31.8 23.1 71 4.0 NE 13 19 7 10 1011.9 1011.8 0.0
31/01:30am 28.9 31.5 23.3 72 3.8 ENE 15 19 8 10 1012.0 1011.9 0.0
31/01:00am 29.0 31.5 23.2 71 4.0 ENE 15 19 8 10 1012.4 1012.3 0.0
31/12:30am 29.1 31.4 22.8 69 4.3 ENE 15 19 8 10 1012.8 1012.7 0.0
31/12:00am 29.1 31.0 22.8 69 4.3 ENE 17 20 9 11 1013.0 1012.9 0.0
 
Date/Time
CST
Temp
°C
App
Temp
°C
Dew
Point
Rel
Hum
%
Delta-T
°C
Wind Press
QNH
hPa
Press
MSL
hPa
Rain
since 9 am
mm
Dir
 
Spd
km/h
Gust
km/h
Spd
kts
Gust
kts
30/11:30pm 29.1 31.3 22.6 68 4.4 ENE 15 19 8 10 1013.3 1013.2 0.0
30/11:00pm 29.2 31.1 22.7 68 4.4 ENE 17 20 9 11 1013.3 1013.2 0.0
30/10:30pm 29.3 31.0 23.0 69 4.3 E 19 20 10 11 1013.6 1013.5 0.0
30/10:00pm 29.4 31.2 23.3 69 4.2 E 19 22 10 12 1013.9 1013.8 0.0
30/09:30pm 29.6 31.4 23.3 69 4.3 ESE 19 22 10 12 1014.0 1013.9 0.0
30/09:00pm 29.5 31.9 23.7 71 4.0 ESE 17 22 9 12 1013.7 1013.6 0.0
30/08:30pm 29.6 32.1 23.8 71 4.0 ESE 17 20 9 11 1013.7 1013.6 0.0
30/08:00pm 29.6 32.1 23.8 71 4.0 E 17 19 9 10 1013.3 1013.2 0.0
30/07:30pm 29.8 32.2 23.7 70 4.2 E 17 20 9 11 1013.3 1013.2 0.0
30/07:00pm 30.0 32.3 23.4 67 4.5 E 17 20 9 11 1013.1 1013.0 0.0
30/06:30pm 30.4 32.0 23.3 66 4.9 E 20 24 11 13 1012.7 1012.6 0.0
30/06:00pm 31.2 33.0 23.6 64 5.3 E 20 26 11 14 1012.4 1012.3 0.0
30/05:30pm 31.6 32.4 23.2 61 5.8 E 24 28 13 15 1012.1 1012.0 0.0
30/05:00pm 32.9 35.0 24.1 60 6.2 E 20 26 11 14 1011.9 1011.8 0.0
30/04:30pm 33.2 35.0 23.5 56 6.7 E 20 28 11 15 1011.8 1011.7 0.0
30/04:00pm 33.0 35.7 24.2 60 6.2 NE 17 26 9 14 1012.0 1011.9 0.0
30/03:30pm 33.2 35.1 24.4 60 6.2 NE 22 28 12 15 1011.9 1011.8 0.0
30/03:00pm 33.5 35.6 24.1 58 6.6 NE 20 28 11 15 1012.1 1012.0 0.0
30/02:30pm 34.0 36.5 24.8 58 6.5 NNE 20 26 11 14 1012.1 1012.0 0.0
30/02:00pm 33.6 37.1 24.8 60 6.2 ENE 15 24 8 13 1012.4 1012.3 0.0
30/01:30pm 31.7 35.2 24.8 67 4.9 SE 15 19 8 10 1012.6 1012.5 0.0
30/01:00pm 33.6 36.5 24.5 59 6.4 ESE 17 20 9 11 1012.9 1012.8 0.0
30/12:30pm 32.4 35.0 25.5 67 4.9 ESE 22 26 12 14 1013.6 1013.5 0.0
30/12:00pm 32.5 35.2 25.1 65 5.2 SE 20 26 11 14 1013.9 1013.8 0.0
30/11:30am 32.7 35.8 24.2 61 5.9 SE 15 17 8 9 1014.4 1014.3 0.0
30/11:00am 32.3 35.9 24.3 62 5.6 SE 13 17 7 9 1014.6 1014.5 0.0

Other Formats:

Comma delimited format used in spreadsheet applications
http://www.bom.gov.au/fwo/IDD60801/IDD60801.94248.axf

JavaScript Object Notation format (JSON) in row-major order
http://www.bom.gov.au/fwo/IDD60801/IDD60801.94248.json